Airfield :
LOGIN :

Register | Disclaimer

   EN    FR    IT 

 










Legend :    VFR   Marginal VFR   IFR   Intensive IFR   Very Intensive IFR
Visi :
Ceiling :
>= 8 km
>= 3000ft
5 to 8 km
1000 to 3000 ft
1500m to 5 km
500 to 1000 ft
800 to 1500m
200 to 500 ft
< 800m
< 200 ft
Symbols :   Thunderstorms  Fog  Heavy snow  Heavy precipitations  Wind > 20 kt
SIGMETs :     Misc.  Thunderstorms  Icing  Turbulence  Mountain Waves  Volcanic Ashes






- Airport Elevation : 1197 ft
- IATA code : SPM


ETAD - Spangdahlem Ab

CURRENT METAR :
  • 041056Z AUTO 29004KT 9999 FEW049 22/09 A3013 RMK AO2 SLP183 T02180087 $

EXPIRED METARs :
  • 040956Z AUTO 31004KT 9999 FEW044 21/09 A3014 RMK AO2 SLP187 T02090085 $
  • 040856Z AUTO 21005KT 9999 FEW036 20/09 A3015 RMK AO2 SLP190 T01950094 55002 $

TAF TAF ETAD
Valid from the 04 at 06:00 until the 05 at 12:00 UTC


040600Z 0406/0512 VRB03KT 9999 FEW040 QNH3013INS
BECMG 0413/0414 28008KT 9999 SCT040 BKN060 QNH3011INS
BECMG 0420/0421 34008KT 9999 SCT040 QNH3016INS TX21/0415Z TN11/0504Z



MET'MAP, your aeronautical weather chart ! - Copyright ORBIFLY December 2007 - Disclaimer

ORBIFLY MET'MAP TEAM :

Programming & Development : Alexandra Zaïnal
Original concept : Baudouin d'Aumeries
Technical & hardware support : Manuel Goepfert
Assistance : Marc-Olivier Méhu




SOURCES & CREDITS :

   NOAA